createdAt,value
2022-10-20T00:02:01.083Z,82.34
2022-10-20T00:04:29.912Z,81.60
2022-10-20T00:06:57.726Z,81.63
2022-10-20T00:09:25.578Z,81.75
2022-10-20T00:11:53.254Z,81.45
2022-10-20T00:14:21.110Z,81.15
2022-10-20T00:16:48.967Z,82.05
2022-10-20T00:19:16.943Z,80.85
2022-10-20T00:21:44.936Z,81.10
2022-10-20T00:24:12.734Z,81.34
2022-10-20T00:26:40.534Z,81.67
2022-10-20T00:29:08.456Z,81.66
2022-10-20T00:31:36.364Z,81.50
2022-10-20T00:34:04.296Z,82.13
2022-10-20T00:36:32.037Z,81.99
2022-10-20T00:39:01.003Z,82.02
2022-10-20T00:41:29.979Z,82.26
2022-10-20T00:44:00.536Z,82.17
2022-10-20T00:46:38.706Z,82.20
2022-10-20T00:49:23.289Z,82.15
2022-10-20T00:51:52.953Z,82.00
2022-10-20T00:54:27.272Z,81.80
2022-10-20T00:56:57.323Z,82.08
2022-10-20T00:59:30.047Z,81.68
2022-10-20T01:01:59.830Z,81.68
2022-10-20T01:04:30.656Z,81.31
2022-10-20T01:06:58.966Z,81.59
2022-10-20T01:09:27.382Z,81.75
2022-10-20T01:12:16.212Z,81.39
2022-10-20T01:14:50.459Z,82.22
2022-10-20T01:17:40.060Z,82.25
2022-10-20T01:20:28.941Z,82.64
2022-10-20T01:23:24.093Z,82.55
2022-10-20T01:26:20.776Z,82.16
2022-10-20T01:28:57.641Z,81.24
2022-10-20T01:31:53.981Z,81.56
2022-10-20T01:34:33.955Z,80.99
2022-10-20T01:37:08.456Z,81.47
2022-10-20T01:39:53.708Z,82.39
2022-10-20T01:42:24.657Z,82.50
2022-10-20T01:44:56.974Z,82.38
2022-10-20T01:47:27.204Z,81.96
2022-10-20T01:49:57.240Z,82.19
2022-10-20T01:52:27.574Z,81.98
2022-10-20T01:54:55.447Z,82.11
2022-10-20T01:57:45.577Z,81.88
2022-10-20T02:00:15.710Z,81.93
2022-10-20T02:03:04.930Z,82.26
2022-10-20T02:06:09.822Z,82.15
2022-10-20T02:09:01.604Z,82.36
2022-10-20T02:11:43.898Z,82.31
2022-10-20T02:14:14.513Z,81.86
2022-10-20T02:17:01.073Z,82.35
2022-10-20T02:19:34.097Z,82.32
2022-10-20T02:22:03.039Z,82.35
2022-10-20T02:24:36.496Z,81.59
2022-10-20T02:27:41.521Z,82.41
2022-10-20T02:30:12.533Z,83.06
2022-10-20T02:32:42.355Z,82.75
2022-10-20T02:35:14.742Z,82.29
2022-10-20T02:37:42.535Z,82.52
2022-10-20T02:40:11.019Z,82.95
2022-10-20T02:42:40.720Z,83.56
2022-10-20T02:45:09.134Z,83.09
2022-10-20T02:47:37.457Z,82.74
2022-10-20T02:50:06.824Z,83.05
2022-10-20T02:52:35.238Z,83.68
2022-10-20T02:55:03.347Z,83.65
2022-10-20T02:57:31.353Z,83.30
2022-10-20T02:59:59.089Z,82.98
2022-10-20T03:02:26.883Z,82.70
2022-10-20T03:04:54.559Z,82.81
2022-10-20T03:07:22.346Z,82.36
2022-10-20T03:09:50.104Z,82.69
2022-10-20T03:12:17.851Z,83.20
2022-10-20T03:14:45.578Z,83.10
2022-10-20T03:17:13.553Z,83.84
2022-10-20T03:19:41.594Z,84.62
2022-10-20T03:22:09.309Z,84.64
2022-10-20T03:24:37.055Z,84.77
2022-10-20T03:27:04.876Z,84.51
2022-10-20T03:29:32.597Z,84.84
2022-10-20T03:32:00.433Z,84.48
2022-10-20T03:34:28.215Z,83.95
2022-10-20T03:36:56.080Z,84.06
2022-10-20T03:39:23.852Z,84.14
2022-10-20T03:41:51.668Z,84.42
2022-10-20T03:44:19.475Z,84.43
2022-10-20T03:46:47.171Z,84.64
2022-10-20T03:49:14.889Z,84.95
2022-10-20T03:51:42.667Z,84.77
2022-10-20T03:54:10.507Z,85.34
2022-10-20T03:56:38.204Z,85.52
2022-10-20T03:59:05.996Z,85.91
2022-10-20T04:01:35.187Z,85.98
2022-10-20T04:04:03.017Z,85.62
2022-10-20T04:06:32.018Z,85.97
2022-10-20T04:08:59.960Z,86.13
2022-10-20T04:11:27.870Z,85.94
2022-10-20T04:13:55.581Z,85.25
2022-10-20T04:16:24.259Z,86.22
2022-10-20T04:18:53.171Z,86.21
2022-10-20T04:21:21.321Z,86.02
2022-10-20T04:23:49.206Z,85.66
2022-10-20T04:26:16.974Z,84.86
2022-10-20T04:28:44.755Z,84.73
2022-10-20T04:31:12.604Z,84.81
2022-10-20T04:33:40.404Z,84.87
2022-10-20T04:36:12.328Z,85.55
2022-10-20T04:38:40.126Z,85.68
2022-10-20T04:41:08.030Z,85.46
2022-10-20T04:43:35.797Z,85.72
2022-10-20T04:46:08.280Z,85.15
2022-10-20T04:48:38.293Z,85.44
2022-10-20T04:51:11.370Z,85.51
2022-10-20T04:53:39.866Z,85.20
2022-10-20T04:56:09.538Z,85.16
2022-10-20T04:58:37.855Z,86.50
2022-10-20T05:01:13.421Z,84.36
2022-10-20T05:03:41.385Z,81.05
2022-10-20T05:06:20.906Z,78.57
2022-10-20T05:08:51.847Z,76.45
2022-10-20T05:11:21.996Z,75.17
2022-10-20T05:13:50.050Z,74.14
2022-10-20T05:16:18.365Z,73.66
2022-10-20T05:18:47.530Z,72.94
2022-10-20T05:21:18.595Z,72.86
2022-10-20T05:23:47.023Z,72.54
2022-10-20T05:26:17.362Z,72.65
2022-10-20T05:28:50.074Z,72.79
2022-10-20T05:31:20.438Z,72.63
2022-10-20T05:33:53.520Z,72.41
2022-10-20T05:36:24.518Z,72.47
2022-10-20T05:38:54.468Z,72.25
2022-10-20T05:41:28.655Z,72.05
2022-10-20T05:43:58.180Z,72.27
2022-10-20T05:46:28.383Z,74.79
2022-10-20T05:48:58.317Z,77.30
2022-10-20T05:51:29.563Z,79.70
2022-10-20T05:53:58.800Z,81.50
2022-10-20T05:56:28.144Z,81.74
2022-10-20T05:58:56.417Z,82.67
2022-10-20T06:01:27.471Z,83.28
2022-10-20T06:04:00.381Z,83.54
2022-10-20T06:06:30.757Z,83.80
2022-10-20T06:09:00.633Z,84.22
2022-10-20T06:11:28.644Z,83.79
2022-10-20T06:13:56.882Z,83.60
2022-10-20T06:16:26.140Z,82.89
2022-10-20T06:18:54.405Z,82.59
2022-10-20T06:21:27.522Z,82.33
2022-10-20T06:23:55.802Z,81.98
2022-10-20T06:26:25.754Z,80.57
2022-10-20T06:28:58.633Z,81.60
2022-10-20T06:31:39.247Z,79.89
2022-10-20T06:34:09.758Z,79.19
2022-10-20T06:36:39.295Z,78.31
2022-10-20T06:39:09.202Z,78.36
2022-10-20T06:41:37.036Z,77.33
2022-10-20T06:44:04.878Z,76.12
2022-10-20T06:46:35.447Z,76.77
2022-10-20T06:49:06.067Z,76.19
2022-10-20T06:51:35.459Z,76.52
2022-10-20T06:54:03.956Z,76.72
2022-10-20T06:56:34.665Z,77.08
2022-10-20T06:59:04.101Z,76.81
2022-10-20T07:01:34.503Z,77.95
2022-10-20T07:04:05.765Z,77.55
2022-10-20T07:06:37.593Z,77.05
2022-10-20T07:09:11.515Z,76.60
2022-10-20T07:11:39.688Z,75.74
2022-10-20T07:14:07.443Z,75.00
2022-10-20T07:16:35.600Z,74.12
2022-10-20T07:19:04.607Z,73.19
2022-10-20T07:21:36.634Z,73.20
2022-10-20T07:24:06.986Z,73.26
2022-10-20T07:26:38.282Z,73.36
2022-10-20T07:29:06.775Z,71.22
2022-10-20T07:31:42.001Z,70.19
2022-10-20T07:34:25.127Z,68.74
2022-10-20T07:36:54.522Z,70.19
2022-10-20T07:39:22.350Z,68.28
2022-10-20T07:41:50.383Z,66.48
2022-10-20T07:44:18.218Z,66.51
2022-10-20T07:46:46.057Z,64.57
2022-10-20T07:52:01.615Z,64.49
2022-10-20T07:54:29.411Z,62.61
2022-10-20T07:56:57.239Z,61.60
2022-10-20T07:59:25.072Z,62.07
2022-10-20T08:01:56.075Z,61.72
2022-10-20T08:04:26.704Z,62.47
2022-10-20T08:06:54.631Z,61.99
2022-10-20T08:09:22.367Z,62.61
2022-10-20T08:11:52.888Z,63.49
2022-10-20T08:14:27.126Z,62.59
2022-10-20T08:16:56.630Z,61.97
2022-10-20T08:22:13.100Z,63.85
2022-10-20T08:24:40.929Z,63.79
2022-10-20T08:27:08.753Z,64.35
2022-10-20T08:29:37.409Z,64.22
2022-10-20T08:32:05.957Z,64.32
2022-10-20T08:34:33.690Z,64.23
2022-10-20T08:37:01.506Z,64.36
2022-10-20T08:39:29.319Z,63.59
2022-10-20T08:42:13.671Z,63.43
2022-10-20T08:44:44.605Z,61.09
2022-10-20T08:47:22.992Z,60.85
2022-10-20T08:49:51.129Z,60.00
2022-10-20T08:52:22.802Z,58.51
2022-10-20T08:54:55.334Z,56.68
2022-10-20T08:57:27.505Z,56.23
2022-10-20T09:00:04.731Z,55.44
2022-10-20T09:02:34.948Z,54.56
2022-10-20T09:05:04.690Z,54.42
2022-10-20T09:07:35.769Z,55.21
2022-10-20T09:10:25.623Z,55.69
2022-10-20T09:12:54.115Z,54.13
2022-10-20T09:15:23.707Z,55.24
2022-10-20T09:18:03.855Z,54.71
2022-10-20T09:20:40.435Z,52.97
2022-10-20T09:23:40.050Z,54.78
2022-10-20T09:26:30.614Z,55.02
2022-10-20T09:29:17.274Z,55.31
2022-10-20T09:31:54.372Z,54.99
2022-10-20T09:34:30.799Z,55.07
2022-10-20T09:37:07.288Z,56.07
2022-10-20T09:39:50.185Z,55.75
2022-10-20T09:42:29.004Z,55.34
2022-10-20T09:45:07.918Z,56.24
2022-10-20T09:47:35.701Z,57.19
2022-10-20T09:50:06.918Z,57.40
2022-10-20T09:52:47.763Z,58.56
2022-10-20T09:55:21.510Z,58.20
2022-10-20T09:57:49.648Z,56.38
2022-10-20T10:00:36.784Z,55.46
2022-10-20T10:03:10.727Z,55.03
2022-10-20T10:05:38.516Z,53.75
2022-10-20T10:08:13.880Z,52.90
2022-10-20T10:10:44.144Z,53.04
2022-10-20T10:13:27.196Z,53.88
2022-10-20T10:16:05.139Z,53.96
2022-10-20T10:18:34.688Z,52.41
2022-10-20T10:21:06.077Z,52.19
2022-10-20T10:23:36.768Z,51.32
2022-10-20T10:26:43.157Z,51.75
2022-10-20T10:29:33.696Z,51.58
2022-10-20T10:32:14.124Z,52.48
2022-10-20T10:35:12.750Z,52.13
2022-10-20T10:37:43.356Z,51.54
2022-10-20T10:40:20.159Z,52.04
2022-10-20T10:43:04.207Z,50.54
2022-10-20T10:45:48.540Z,50.02
2022-10-20T10:48:30.446Z,50.14
2022-10-20T10:51:05.896Z,50.61
2022-10-20T10:53:52.059Z,48.70
2022-10-20T10:56:55.293Z,48.22
2022-10-20T10:59:28.968Z,46.69
2022-10-20T11:02:29.977Z,46.08
2022-10-20T11:05:00.753Z,45.98
2022-10-20T11:07:54.801Z,47.19
2022-10-20T11:10:47.418Z,46.00
2022-10-20T11:13:28.177Z,46.02
2022-10-20T11:16:12.831Z,46.69
2022-10-20T11:19:08.362Z,45.54
2022-10-20T11:22:03.706Z,46.16
2022-10-20T11:24:45.811Z,43.80
2022-10-20T11:27:16.003Z,44.68
2022-10-20T11:30:08.762Z,45.12
2022-10-20T11:32:45.062Z,47.79
2022-10-20T11:35:51.448Z,48.10
2022-10-20T11:38:31.397Z,46.32
2022-10-20T11:41:11.540Z,47.06
2022-10-20T11:43:54.659Z,46.78
2022-10-20T11:46:32.375Z,46.04
2022-10-20T11:49:01.818Z,47.17
2022-10-20T11:51:31.721Z,47.64
2022-10-20T11:54:11.619Z,46.61
2022-10-20T11:56:57.694Z,46.04
2022-10-20T11:59:33.966Z,45.72
2022-10-20T12:02:32.853Z,46.51
2022-10-20T12:05:22.737Z,46.65
2022-10-20T12:08:30.562Z,47.21
2022-10-20T12:11:07.572Z,46.45
2022-10-20T12:14:07.090Z,45.72
2022-10-20T12:16:55.779Z,46.24
2022-10-20T12:19:26.140Z,46.00
2022-10-20T12:22:07.251Z,46.28
2022-10-20T12:24:40.260Z,47.01
2022-10-20T12:27:10.924Z,47.06
2022-10-20T12:29:38.837Z,47.52
2022-10-20T12:32:22.219Z,46.90
2022-10-20T12:35:01.526Z,47.43
2022-10-20T12:37:37.184Z,48.20
2022-10-20T12:40:08.312Z,47.52
2022-10-20T12:42:46.639Z,48.48
2022-10-20T12:45:20.460Z,47.87
2022-10-20T12:47:50.695Z,47.86
2022-10-20T12:50:32.080Z,48.53
2022-10-20T12:53:27.099Z,49.02
2022-10-20T12:56:14.567Z,48.91
2022-10-20T12:59:42.934Z,48.56
2022-10-20T13:02:25.806Z,48.58
2022-10-20T13:04:58.043Z,48.82
2022-10-20T13:07:52.640Z,48.06
2022-10-20T13:10:37.112Z,48.36
2022-10-20T13:13:05.292Z,48.27
2022-10-20T13:15:33.816Z,48.77
2022-10-20T13:18:17.400Z,49.47
2022-10-20T13:21:30.681Z,50.17
2022-10-20T13:24:20.203Z,50.38
2022-10-20T13:26:57.613Z,49.71
2022-10-20T13:29:36.054Z,50.93
2022-10-20T13:32:47.802Z,49.72
2022-10-20T13:35:46.557Z,49.79
2022-10-20T13:38:24.656Z,49.64
2022-10-20T13:41:02.378Z,50.32
2022-10-20T13:43:48.535Z,50.21
2022-10-20T13:46:38.029Z,50.58
2022-10-20T13:49:52.666Z,50.18
2022-10-20T13:52:21.808Z,50.37
2022-10-20T13:54:51.905Z,50.34
2022-10-20T13:57:32.113Z,50.49
2022-10-20T14:00:23.032Z,50.66
2022-10-20T14:03:14.817Z,50.36
2022-10-20T14:05:42.661Z,50.67
2022-10-20T14:08:14.488Z,50.69
2022-10-20T14:10:53.783Z,50.83
2022-10-20T14:13:34.550Z,49.83
2022-10-20T14:16:05.996Z,50.37
2022-10-20T14:18:38.346Z,50.19
2022-10-20T14:21:14.713Z,50.34
2022-10-20T14:23:44.440Z,50.70
2022-10-20T14:26:17.830Z,50.72
2022-10-20T14:28:47.391Z,51.37
2022-10-20T14:31:15.562Z,50.81
2022-10-20T14:33:48.224Z,51.08
2022-10-20T14:38:58.389Z,50.40
2022-10-20T14:41:32.240Z,51.16
2022-10-20T14:44:09.426Z,50.83
2022-10-20T14:46:46.911Z,51.16
2022-10-20T14:49:23.814Z,51.02
2022-10-20T14:51:58.769Z,51.35
2022-10-20T14:54:39.377Z,51.48
2022-10-20T14:57:11.061Z,51.68
2022-10-20T15:00:02.892Z,52.09
2022-10-20T15:02:42.721Z,52.12
2022-10-20T15:05:36.414Z,52.27
2022-10-20T15:08:22.894Z,52.67
2022-10-20T15:10:50.962Z,52.90
2022-10-20T15:13:25.035Z,52.93
2022-10-20T15:15:56.804Z,53.18
2022-10-20T15:18:25.095Z,53.34
2022-10-20T15:20:54.654Z,53.60
2022-10-20T15:23:25.064Z,54.04
2022-10-20T15:25:58.555Z,54.36
2022-10-20T15:28:55.555Z,53.94
2022-10-20T15:31:26.931Z,54.43
2022-10-20T15:33:56.235Z,54.33
2022-10-20T15:36:29.964Z,54.96
2022-10-20T15:38:57.860Z,54.65
2022-10-20T15:41:28.698Z,55.53
2022-10-20T15:43:57.063Z,54.84
2022-10-20T15:46:24.901Z,54.80
2022-10-20T15:48:52.984Z,54.75
2022-10-20T15:51:33.380Z,55.24
2022-10-20T15:54:01.841Z,55.08
2022-10-20T15:56:31.655Z,55.89
2022-10-20T15:59:01.146Z,55.94
2022-10-20T16:01:31.952Z,56.14
2022-10-20T16:04:03.325Z,56.59
2022-10-20T16:06:31.226Z,56.55
2022-10-20T16:08:59.113Z,56.85
2022-10-20T16:11:28.262Z,57.65
2022-10-20T16:13:56.440Z,57.55
2022-10-20T16:16:35.987Z,57.94
2022-10-20T16:23:42.550Z,58.48
2022-10-20T16:26:17.709Z,58.70
2022-10-20T16:28:45.968Z,58.74
2022-10-20T16:31:16.994Z,59.22
2022-10-20T16:33:45.953Z,60.07
2022-10-20T16:36:16.257Z,60.36
2022-10-20T16:38:44.148Z,60.67
2022-10-20T16:41:14.889Z,60.90
2022-10-20T16:43:46.774Z,61.00
2022-10-20T16:46:16.357Z,61.53
2022-10-20T16:48:47.723Z,60.86
2022-10-20T16:51:17.775Z,61.13
2022-10-20T16:53:46.006Z,61.70
2022-10-20T16:56:16.708Z,62.10
2022-10-20T16:58:48.097Z,61.63
2022-10-20T17:01:18.683Z,61.57
2022-10-20T17:03:49.468Z,61.90
2022-10-20T17:06:23.181Z,62.44
2022-10-20T17:08:51.644Z,62.01
2022-10-20T17:11:27.272Z,62.91
2022-10-20T17:13:56.883Z,63.47
2022-10-20T17:16:31.629Z,63.80
2022-10-20T17:19:03.280Z,63.50
2022-10-20T17:21:32.637Z,63.51
2022-10-20T17:24:00.726Z,63.47
2022-10-20T17:26:33.028Z,63.79
2022-10-20T17:29:02.088Z,63.87
2022-10-20T17:31:30.218Z,64.25
2022-10-20T17:33:59.232Z,64.25
2022-10-20T17:36:28.685Z,64.33
2022-10-20T17:39:02.624Z,64.65
2022-10-20T17:41:30.552Z,65.37
2022-10-20T17:44:02.913Z,65.47
2022-10-20T17:46:30.873Z,65.63
2022-10-20T17:48:58.654Z,65.99
2022-10-20T17:51:29.133Z,66.01
2022-10-20T17:53:59.916Z,66.70
2022-10-20T17:56:31.699Z,67.34
2022-10-20T17:59:03.119Z,66.66
2022-10-20T18:01:38.101Z,66.76
2022-10-20T18:04:14.419Z,66.50
2022-10-20T18:06:43.538Z,66.66
2022-10-20T18:09:16.528Z,66.90
2022-10-20T18:11:47.199Z,66.69
2022-10-20T18:14:15.327Z,67.14
2022-10-20T18:16:44.524Z,66.92
2022-10-20T18:19:16.582Z,67.10
2022-10-20T18:21:47.887Z,67.76
2022-10-20T18:24:19.380Z,67.85
2022-10-20T18:26:47.869Z,67.76
2022-10-20T18:29:17.228Z,69.02
2022-10-20T18:31:48.130Z,70.50
2022-10-20T18:34:21.684Z,70.56
2022-10-20T18:36:51.956Z,71.66
2022-10-20T18:39:20.040Z,71.70
2022-10-20T18:41:55.506Z,72.30
2022-10-20T18:44:24.170Z,72.66
2022-10-20T18:46:57.817Z,72.47
2022-10-20T18:49:26.515Z,72.77
2022-10-20T18:51:54.906Z,72.04
2022-10-20T18:54:24.527Z,71.88
2022-10-20T18:56:53.607Z,72.38
2022-10-20T18:59:23.444Z,71.20
2022-10-20T19:01:52.204Z,71.12
2022-10-20T19:04:20.019Z,71.31
2022-10-20T19:06:52.311Z,71.85
2022-10-20T19:09:21.999Z,72.01
2022-10-20T19:14:25.058Z,72.31
2022-10-20T19:16:53.551Z,72.57
2022-10-20T19:19:23.092Z,73.33
2022-10-20T19:21:50.907Z,74.18
2022-10-20T19:24:21.891Z,73.71
2022-10-20T19:27:24.550Z,73.58
2022-10-20T19:29:45.850Z,73.18
2022-10-20T19:32:14.270Z,74.43
2022-10-20T19:34:42.696Z,74.02
2022-10-20T19:37:10.578Z,73.94
2022-10-20T19:39:41.938Z,73.53
2022-10-20T19:42:11.498Z,73.79
2022-10-20T19:44:39.616Z,74.07
2022-10-20T19:47:09.350Z,75.25
2022-10-20T19:49:39.097Z,74.83
2022-10-20T19:52:09.008Z,74.83
2022-10-20T19:54:36.949Z,74.89
2022-10-20T19:57:06.294Z,75.13
2022-10-20T19:59:34.202Z,75.43
2022-10-20T20:02:02.426Z,74.94
2022-10-20T20:04:30.281Z,75.99
2022-10-20T20:07:01.916Z,76.26
2022-10-20T20:09:30.864Z,76.24
2022-10-20T20:11:58.683Z,76.24
2022-10-20T20:14:26.604Z,76.36
2022-10-20T20:16:54.422Z,75.82
2022-10-20T20:19:22.260Z,76.07
2022-10-20T20:21:50.129Z,76.66
2022-10-20T20:24:17.915Z,77.04
2022-10-20T20:26:45.762Z,76.81
2022-10-20T20:29:13.876Z,76.96
2022-10-20T20:31:41.744Z,76.40
2022-10-20T20:34:09.616Z,77.12
2022-10-20T20:36:39.517Z,77.04
2022-10-20T20:39:07.551Z,76.62
2022-10-20T20:41:35.488Z,76.14
2022-10-20T20:44:08.500Z,75.92
2022-10-20T20:46:37.230Z,76.11
2022-10-20T20:49:05.459Z,76.58
2022-10-20T20:51:36.278Z,76.48
2022-10-20T20:54:04.111Z,76.66
2022-10-20T20:56:32.420Z,76.37
2022-10-20T20:59:00.538Z,76.12
2022-10-20T21:01:31.966Z,77.02
2022-10-20T21:04:02.687Z,76.84
2022-10-20T21:06:49.355Z,77.01
2022-10-20T21:09:26.372Z,77.83
2022-10-20T21:11:55.555Z,78.28
2022-10-20T21:14:24.070Z,77.93
2022-10-20T21:16:51.893Z,78.23
2022-10-20T21:19:20.358Z,78.46
2022-10-20T21:21:57.522Z,78.95
2022-10-20T21:24:26.689Z,78.33
2022-10-20T21:26:54.864Z,78.41
2022-10-20T21:29:22.789Z,78.51
2022-10-20T21:31:50.692Z,78.59
2022-10-20T21:34:29.388Z,79.12
2022-10-20T21:36:58.254Z,78.96
2022-10-20T21:39:26.173Z,79.25
2022-10-20T21:41:54.061Z,79.39
2022-10-20T21:44:21.841Z,78.98
2022-10-20T21:46:52.293Z,78.83
2022-10-20T21:49:25.413Z,78.72
2022-10-20T21:51:55.613Z,79.60
2022-10-20T21:54:26.072Z,79.86
2022-10-20T21:56:54.675Z,79.86
2022-10-20T21:59:28.523Z,79.52
2022-10-20T22:02:02.163Z,80.27
2022-10-20T22:04:30.627Z,79.75
2022-10-20T22:06:59.648Z,79.43
2022-10-20T22:09:27.649Z,78.94
2022-10-20T22:11:56.867Z,78.82
2022-10-20T22:14:24.925Z,79.38
2022-10-20T22:16:52.839Z,78.90
2022-10-20T22:19:22.871Z,78.88
2022-10-20T22:21:51.944Z,78.65
2022-10-20T22:24:21.056Z,78.57
2022-10-20T22:26:51.645Z,78.81
2022-10-20T22:29:21.100Z,78.91
2022-10-20T22:31:49.349Z,78.75
2022-10-20T22:34:17.194Z,78.95
2022-10-20T22:36:44.913Z,79.50
2022-10-20T22:41:45.929Z,78.73
2022-10-20T22:44:13.755Z,78.61
2022-10-20T22:46:41.557Z,78.98
2022-10-20T22:49:09.255Z,78.94
2022-10-20T22:51:36.997Z,78.70
2022-10-20T22:54:04.907Z,78.62
2022-10-20T22:56:32.739Z,78.70
2022-10-20T22:59:00.460Z,78.77
2022-10-20T23:01:28.464Z,80.09
2022-10-20T23:03:56.288Z,79.45
2022-10-20T23:06:26.011Z,79.35
2022-10-20T23:08:56.073Z,79.30
2022-10-20T23:11:24.323Z,80.06
2022-10-20T23:13:52.179Z,79.82
2022-10-20T23:16:20.822Z,80.01
2022-10-20T23:18:48.706Z,79.16
2022-10-20T23:21:17.065Z,79.70
2022-10-20T23:23:45.478Z,79.91
2022-10-20T23:26:13.586Z,79.78
2022-10-20T23:28:41.339Z,78.89
2022-10-20T23:31:14.255Z,79.02
2022-10-20T23:33:43.842Z,79.50
2022-10-20T23:36:13.086Z,78.94
2022-10-20T23:38:41.869Z,78.89
2022-10-20T23:41:10.759Z,78.46
2022-10-20T23:43:38.569Z,78.18
2022-10-20T23:46:07.315Z,78.29
2022-10-20T23:48:36.071Z,78.05
2022-10-20T23:51:04.684Z,78.26
2022-10-20T23:53:33.390Z,78.43
2022-10-20T23:56:01.178Z,77.72
2022-10-20T23:58:28.970Z,77.41
